createdAt,value
2019-03-12T00:05:10.876Z,98486.27
2019-03-12T00:46:10.942Z,98540.20
2019-03-12T00:48:40.565Z,98549.20
2019-03-12T00:51:09.918Z,98562.05
2019-03-12T00:53:39.160Z,98559.63
2019-03-12T00:56:08.532Z,98557.81
2019-03-12T00:58:37.751Z,98564.09
2019-03-12T01:01:07.015Z,98577.92
2019-03-12T01:03:36.281Z,98567.73
2019-03-12T01:06:05.578Z,98577.59
2019-03-12T01:08:34.810Z,98585.15
2019-03-12T01:11:04.073Z,98586.95
2019-03-12T01:13:33.298Z,98584.50
2019-03-12T01:16:02.545Z,98585.81
2019-03-12T01:18:31.839Z,98588.78
2019-03-12T01:21:01.095Z,98582.18
2019-03-12T01:23:30.321Z,98591.69
2019-03-12T01:25:59.611Z,98591.19
2019-03-12T01:28:28.840Z,98593.31
2019-03-12T01:30:58.099Z,98594.45
2019-03-12T01:33:27.330Z,98592.63
2019-03-12T01:35:56.597Z,98602.00
2019-03-12T01:38:26.176Z,98606.77
2019-03-12T01:40:55.441Z,98602.98
2019-03-12T01:43:24.663Z,98616.51
2019-03-12T01:45:53.912Z,98620.98
2019-03-12T01:48:23.247Z,98623.11
2019-03-12T01:50:53.629Z,98625.53
2019-03-12T01:53:22.856Z,98620.94
2019-03-12T01:55:52.109Z,98636.27
2019-03-12T01:58:21.343Z,98641.06
2019-03-12T02:00:50.608Z,98640.21
2019-03-12T02:03:19.894Z,98633.64
2019-03-12T02:05:49.157Z,98635.92
2019-03-12T02:08:18.771Z,98641.67
2019-03-12T02:10:48.026Z,98640.21
2019-03-12T02:13:17.262Z,98637.42
2019-03-12T02:15:46.536Z,98643.19
2019-03-12T02:18:15.777Z,98648.27
2019-03-12T02:20:45.031Z,98657.52
2019-03-12T02:23:14.261Z,98661.14
2019-03-12T02:25:43.528Z,98673.01
2019-03-12T02:28:12.752Z,98673.49
2019-03-12T02:30:42.070Z,98678.43
2019-03-12T02:33:11.325Z,98686.34
2019-03-12T02:35:40.580Z,98688.52
2019-03-12T02:38:09.831Z,98696.22
2019-03-12T02:40:39.083Z,98704.31
2019-03-12T02:43:08.316Z,98697.54
2019-03-12T02:45:37.559Z,98709.59
2019-03-12T02:48:06.777Z,98712.59
2019-03-12T02:50:36.045Z,98718.34
2019-03-12T02:53:05.395Z,98717.18
2019-03-12T02:55:34.652Z,98723.13
2019-03-12T02:58:03.997Z,98732.82
2019-03-12T03:00:33.241Z,98731.36
2019-03-12T03:03:02.578Z,98735.97
2019-03-12T03:05:34.438Z,98736.59
2019-03-12T03:08:06.752Z,98744.67
2019-03-12T03:10:36.000Z,98741.52
2019-03-12T03:13:05.266Z,98748.88
2019-03-12T03:15:39.958Z,98748.88
2019-03-12T03:18:09.231Z,98756.11
2019-03-12T03:20:38.574Z,98756.27
2019-03-12T03:23:07.835Z,98759.58
2019-03-12T03:25:37.126Z,98777.20
2019-03-12T03:28:06.338Z,98770.94
2019-03-12T03:30:35.600Z,98782.40
2019-03-12T03:33:04.958Z,98782.08
2019-03-12T03:35:34.518Z,98790.17
2019-03-12T03:38:03.781Z,98785.89
2019-03-12T03:40:33.013Z,98792.67
2019-03-12T03:43:02.270Z,98791.03
2019-03-12T03:45:31.574Z,98796.42
2019-03-12T03:48:00.805Z,98796.27
2019-03-12T03:50:32.459Z,98800.38
2019-03-12T03:53:01.751Z,98793.28
2019-03-12T03:55:30.992Z,98797.74
2019-03-12T03:58:01.084Z,98803.84
2019-03-12T04:00:30.888Z,98807.69
2019-03-12T04:03:00.138Z,98807.17
2019-03-12T04:05:29.400Z,98797.91
2019-03-12T04:07:58.779Z,98803.94
2019-03-12T04:10:27.970Z,98797.58
2019-03-12T04:12:57.236Z,98805.19
2019-03-12T04:15:26.468Z,98802.50
2019-03-12T04:17:55.762Z,98802.78
2019-03-12T04:20:24.989Z,98810.04
2019-03-12T04:22:54.266Z,98808.56
2019-03-12T04:25:23.492Z,98809.94
2019-03-12T04:27:52.784Z,98805.35
2019-03-12T04:30:22.011Z,98806.31
2019-03-12T04:32:51.255Z,98813.67
2019-03-12T04:35:21.310Z,98804.33
2019-03-12T04:37:50.573Z,98806.57
2019-03-12T04:40:19.812Z,98815.23
2019-03-12T04:42:49.093Z,98814.76
2019-03-12T04:45:18.328Z,98819.54
2019-03-12T04:47:47.694Z,98836.72
2019-03-12T04:50:17.237Z,98824.42
2019-03-12T04:52:46.514Z,98828.59
2019-03-12T04:55:15.983Z,98835.50
2019-03-12T04:57:45.353Z,98831.73
2019-03-12T05:00:16.387Z,98824.80
2019-03-12T05:02:45.959Z,98829.94
2019-03-12T05:05:15.206Z,98832.41
2019-03-12T05:07:44.466Z,98839.80
2019-03-12T05:10:14.191Z,98847.19
2019-03-12T05:12:43.448Z,98848.82
2019-03-12T05:15:13.426Z,98853.93
2019-03-12T05:17:43.170Z,98849.14
2019-03-12T05:20:13.577Z,98853.38
2019-03-12T05:22:42.836Z,98853.06
2019-03-12T05:25:13.077Z,98858.20
2019-03-12T05:27:42.329Z,98860.35
2019-03-12T05:30:14.353Z,98868.25
2019-03-12T05:32:43.603Z,98863.31
2019-03-12T05:35:12.861Z,98865.45
2019-03-12T05:37:42.125Z,98866.97
2019-03-12T05:40:12.179Z,98864.84
2019-03-12T05:42:41.454Z,98870.79
2019-03-12T05:45:11.229Z,98877.62
2019-03-12T05:47:40.464Z,98887.36
2019-03-12T05:50:10.729Z,98885.91
2019-03-12T05:52:39.956Z,98895.17
2019-03-12T05:55:09.645Z,98904.67
2019-03-12T05:57:38.916Z,98906.98
2019-03-12T06:00:09.658Z,98907.23
2019-03-12T06:02:38.892Z,98909.39
2019-03-12T06:05:08.374Z,98912.14
2019-03-12T06:07:37.618Z,98905.28
2019-03-12T06:10:07.152Z,98911.50
2019-03-12T06:12:36.357Z,98904.36
2019-03-12T06:15:05.988Z,98909.11
2019-03-12T06:17:35.226Z,98906.64
2019-03-12T06:20:04.868Z,98914.22
2019-03-12T06:22:34.095Z,98915.41
2019-03-12T06:25:03.374Z,98914.45
2019-03-12T06:27:32.610Z,98914.33
2019-03-12T06:30:01.870Z,98920.77
2019-03-12T06:32:52.880Z,98923.83
2019-03-12T06:35:43.980Z,98928.50
2019-03-12T06:38:21.475Z,98925.58
2019-03-12T06:41:07.952Z,98943.50
2019-03-12T06:43:56.153Z,98939.71
2019-03-12T06:46:32.357Z,98942.70
2019-03-12T06:49:18.677Z,98933.55
2019-03-12T06:52:05.446Z,98946.33
2019-03-12T06:54:56.015Z,98949.68
2019-03-12T06:57:50.061Z,98954.82
2019-03-12T07:00:53.515Z,98955.23
2019-03-12T07:03:53.429Z,98953.47
2019-03-12T07:06:47.611Z,98961.02
2019-03-12T07:09:25.693Z,98963.53
2019-03-12T07:11:59.146Z,98961.28
2019-03-12T07:14:50.108Z,98962.83
2019-03-12T07:17:41.046Z,98969.25
2019-03-12T07:20:32.193Z,98966.43
2019-03-12T07:23:17.097Z,98963.95
2019-03-12T07:26:11.219Z,98968.12
2019-03-12T07:28:52.910Z,98964.40
2019-03-12T07:31:47.145Z,98963.64
2019-03-12T07:34:44.807Z,98964.69
2019-03-12T07:37:24.195Z,98964.18
2019-03-12T07:40:20.148Z,98954.78
2019-03-12T07:43:04.574Z,98957.56
2019-03-12T07:45:41.913Z,98949.65
2019-03-12T07:48:27.339Z,98957.75
2019-03-12T07:51:13.359Z,98952.23
2019-03-12T07:53:59.794Z,98946.65
2019-03-12T07:56:42.678Z,98955.73
2019-03-12T07:59:36.757Z,98951.91
2019-03-12T08:02:18.132Z,98953.37
2019-03-12T08:04:57.488Z,98962.40
2019-03-12T08:07:51.472Z,98957.93
2019-03-12T08:10:28.948Z,98958.61
2019-03-12T08:13:22.897Z,98955.34
2019-03-12T08:16:16.938Z,98953.37
2019-03-12T08:19:01.738Z,98949.94
2019-03-12T08:22:01.771Z,98945.81
2019-03-12T08:24:52.706Z,98943.33
2019-03-12T08:27:35.981Z,98938.69
2019-03-12T08:30:22.016Z,98939.91
2019-03-12T08:33:25.392Z,98942.06
2019-03-12T08:36:22.867Z,98932.19
2019-03-12T08:38:59.618Z,98941.94
2019-03-12T08:41:53.976Z,98931.53
2019-03-12T08:44:52.082Z,98935.16
2019-03-12T08:47:39.017Z,98929.72
2019-03-12T08:50:29.945Z,98935.31
2019-03-12T08:53:04.879Z,98933.28
2019-03-12T08:56:11.471Z,98924.70
2019-03-12T08:59:08.814Z,98925.98
2019-03-12T09:01:54.472Z,98922.33
2019-03-12T09:04:45.875Z,98918.18
2019-03-12T09:07:28.092Z,98915.39
2019-03-12T09:10:16.293Z,98910.98
2019-03-12T09:13:04.505Z,98904.94
2019-03-12T09:15:51.256Z,98904.47
2019-03-12T09:18:42.232Z,98890.95
2019-03-12T09:21:33.325Z,98895.25
2019-03-12T09:24:30.315Z,98890.34
2019-03-12T09:27:17.066Z,98885.58
2019-03-12T09:29:55.161Z,98885.29
2019-03-12T09:32:35.552Z,98883.14
2019-03-12T09:35:22.785Z,98885.29
2019-03-12T09:38:09.525Z,98877.05
2019-03-12T09:40:48.817Z,98880.26
2019-03-12T09:43:42.874Z,98879.34
2019-03-12T09:46:31.175Z,98871.89
2019-03-12T09:49:21.929Z,98871.56
2019-03-12T09:51:56.451Z,98859.44
2019-03-12T09:54:47.530Z,98859.44
2019-03-12T09:57:34.731Z,98853.80
2019-03-12T10:00:35.524Z,98849.43
2019-03-12T10:03:16.089Z,98859.36
2019-03-12T10:06:07.100Z,98862.01
2019-03-12T10:09:07.316Z,98855.33
2019-03-12T10:11:51.453Z,98859.96
2019-03-12T10:14:38.263Z,98854.76
2019-03-12T10:17:24.970Z,98843.09
2019-03-12T10:20:25.243Z,98843.03
2019-03-12T10:23:12.089Z,98844.84
2019-03-12T10:26:09.295Z,98829.63
2019-03-12T10:28:56.039Z,98833.91
2019-03-12T10:31:46.136Z,98831.58
2019-03-12T10:34:29.603Z,98824.00
2019-03-12T10:37:11.815Z,98808.55
2019-03-12T10:40:13.155Z,98824.88
2019-03-12T10:43:09.789Z,98826.62
2019-03-12T10:46:03.971Z,98830.45
2019-03-12T10:48:33.985Z,98820.90
2019-03-12T10:51:03.223Z,98813.13
2019-03-12T10:53:32.478Z,98809.27
2019-03-12T10:56:01.704Z,98805.95
2019-03-12T10:58:30.958Z,98789.30
2019-03-12T11:01:00.198Z,98786.43
2019-03-12T11:03:29.449Z,98793.80
2019-03-12T11:05:58.686Z,98781.25
2019-03-12T11:08:27.966Z,98776.81
2019-03-12T11:10:57.239Z,98778.16
2019-03-12T11:13:26.462Z,98776.19
2019-03-12T11:15:55.726Z,98774.30
2019-03-12T11:18:24.992Z,98768.49
2019-03-12T11:20:54.243Z,98762.92
2019-03-12T11:23:23.467Z,98755.07
2019-03-12T11:25:52.752Z,98759.13
2019-03-12T11:28:22.177Z,98746.80
2019-03-12T11:30:51.432Z,98741.66
2019-03-12T11:33:20.765Z,98745.08
2019-03-12T11:35:50.010Z,98742.56
2019-03-12T11:38:19.235Z,98746.56
2019-03-12T11:40:48.485Z,98734.64
2019-03-12T11:43:17.743Z,98737.36
2019-03-12T11:45:46.977Z,98721.78
2019-03-12T11:48:16.198Z,98718.34
2019-03-12T11:50:45.485Z,98714.87
2019-03-12T11:53:14.757Z,98706.02
2019-03-12T11:55:44.018Z,98695.14
2019-03-12T11:58:13.259Z,98688.20
2019-03-12T12:00:46.621Z,98682.05
2019-03-12T12:03:15.912Z,98682.97
2019-03-12T12:05:45.678Z,98671.11
2019-03-12T12:08:15.187Z,98660.48
2019-03-12T12:10:44.463Z,98659.11
2019-03-12T12:13:13.691Z,98655.37
2019-03-12T12:15:42.955Z,98643.86
2019-03-12T12:18:12.184Z,98630.06
2019-03-12T12:20:41.510Z,98623.59
2019-03-12T12:23:11.877Z,98618.30
2019-03-12T12:25:41.141Z,98619.61
2019-03-12T12:28:10.378Z,98612.94
2019-03-12T12:30:39.640Z,98602.26
2019-03-12T12:33:08.880Z,98602.28
2019-03-12T12:35:38.139Z,98590.22
2019-03-12T12:38:07.373Z,98590.09
2019-03-12T12:40:36.644Z,98583.44
2019-03-12T12:43:05.900Z,98584.00
2019-03-12T12:45:35.394Z,98570.59
2019-03-12T12:48:04.785Z,98566.61
2019-03-12T12:50:34.000Z,98554.85
2019-03-12T12:53:03.352Z,98553.69
2019-03-12T12:55:32.708Z,98556.73
2019-03-12T12:58:02.005Z,98549.70
2019-03-12T13:00:31.470Z,98540.86
2019-03-12T13:03:00.710Z,98537.83
2019-03-12T13:05:29.973Z,98520.38
2019-03-12T13:07:59.200Z,98523.66
2019-03-12T13:10:28.682Z,98511.27
2019-03-12T13:12:57.902Z,98499.51
2019-03-12T13:15:27.159Z,98497.84
2019-03-12T13:17:58.397Z,98502.10
2019-03-12T13:20:27.697Z,98502.95
2019-03-12T13:22:56.925Z,98500.88
2019-03-12T13:25:26.186Z,98487.98
2019-03-12T13:27:55.781Z,98477.16
2019-03-12T13:30:25.160Z,98472.54
2019-03-12T13:32:54.398Z,98458.39
2019-03-12T13:35:23.654Z,98446.08
2019-03-12T13:37:52.916Z,98440.31
2019-03-12T13:40:22.718Z,98431.05
2019-03-12T13:42:52.493Z,98434.47
2019-03-12T13:45:21.771Z,98423.48
2019-03-12T13:47:51.074Z,98416.05
2019-03-12T13:50:22.501Z,98414.81
2019-03-12T13:52:52.001Z,98412.88
2019-03-12T13:55:21.630Z,98411.89
2019-03-12T13:57:51.034Z,98406.15
2019-03-12T14:00:20.842Z,98395.58
2019-03-12T14:02:50.742Z,98394.52
2019-03-12T14:05:20.078Z,98394.41
2019-03-12T14:07:49.749Z,98386.84
2019-03-12T14:10:20.515Z,98376.57
2019-03-12T14:12:50.609Z,98384.45
2019-03-12T14:15:23.348Z,98380.80
2019-03-12T14:17:52.713Z,98370.73
2019-03-12T14:20:42.530Z,98369.39
2019-03-12T14:23:13.523Z,98366.00
2019-03-12T14:25:42.767Z,98360.73
2019-03-12T14:28:12.223Z,98356.84
2019-03-12T14:30:41.675Z,98364.17
2019-03-12T14:33:11.469Z,98348.44
2019-03-12T14:35:50.686Z,98355.09
2019-03-12T14:38:11.899Z,98336.61
2019-03-12T14:40:41.131Z,98331.78
2019-03-12T14:43:10.482Z,98322.48
2019-03-12T14:45:42.881Z,98313.20
2019-03-12T14:48:37.825Z,98308.91
2019-03-12T14:51:13.908Z,98300.04
2019-03-12T14:53:43.287Z,98296.52
2019-03-12T14:56:12.556Z,98297.88
2019-03-12T14:58:41.783Z,98292.83
2019-03-12T15:01:11.014Z,98276.31
2019-03-12T15:03:40.502Z,98285.84
2019-03-12T15:06:09.720Z,98272.56
2019-03-12T15:08:39.020Z,98270.23
2019-03-12T15:11:08.381Z,98264.76
2019-03-12T15:13:37.657Z,98256.63
2019-03-12T15:16:07.195Z,98258.06
2019-03-12T15:18:36.471Z,98257.26
2019-03-12T15:21:05.699Z,98250.00
2019-03-12T15:23:34.961Z,98249.64
2019-03-12T15:26:04.185Z,98237.62
2019-03-12T15:28:33.559Z,98234.61
2019-03-12T15:31:02.785Z,98228.92
2019-03-12T15:33:32.043Z,98224.55
2019-03-12T15:36:01.324Z,98209.04
2019-03-12T15:38:30.585Z,98209.92
2019-03-12T15:40:59.820Z,98194.23
2019-03-12T15:43:29.105Z,98174.38
2019-03-12T15:45:58.338Z,98178.45
2019-03-12T15:48:27.600Z,98171.97
2019-03-12T15:50:56.843Z,98163.94
2019-03-12T15:53:26.208Z,98166.98
2019-03-12T15:55:56.133Z,98162.55
2019-03-12T15:58:25.421Z,98158.62
2019-03-12T16:00:54.670Z,98148.16
2019-03-12T16:03:23.961Z,98144.69
2019-03-12T16:05:54.379Z,98142.03
2019-03-12T16:08:23.647Z,98142.84
2019-03-12T16:10:57.800Z,98134.28
2019-03-12T16:13:23.988Z,98131.23
2019-03-12T16:15:53.539Z,98122.86
2019-03-12T16:18:22.840Z,98120.44
2019-03-12T16:20:52.066Z,98120.77
2019-03-12T16:23:21.330Z,98120.86
2019-03-12T16:25:50.936Z,98113.25
2019-03-12T16:28:20.206Z,98107.39
2019-03-12T16:30:49.451Z,98103.69
2019-03-12T16:33:18.711Z,98098.50
2019-03-12T16:35:47.990Z,98097.68
2019-03-12T16:38:17.249Z,98093.28
2019-03-12T16:40:46.813Z,98085.67
2019-03-12T16:43:16.193Z,98089.88
2019-03-12T16:45:45.436Z,98076.20
2019-03-12T16:48:15.063Z,98079.16
2019-03-12T16:50:44.355Z,98074.17
2019-03-12T16:53:13.838Z,98072.94
2019-03-12T16:55:43.072Z,98072.86
2019-03-12T16:58:12.499Z,98066.41
2019-03-12T17:00:41.741Z,98056.42
2019-03-12T17:03:11.001Z,98055.10
2019-03-12T17:05:40.256Z,98047.83
2019-03-12T17:08:16.802Z,98046.91
2019-03-12T17:10:56.071Z,98047.82
2019-03-12T17:13:20.424Z,98037.52
2019-03-12T17:15:54.489Z,98037.84
2019-03-12T17:18:21.563Z,98037.80
2019-03-12T17:20:53.070Z,98024.14
2019-03-12T17:23:22.440Z,98019.25
2019-03-12T17:25:52.786Z,98012.83
2019-03-12T17:28:22.050Z,98012.50
2019-03-12T17:30:51.110Z,98007.13
2019-03-12T17:33:22.764Z,97999.58
2019-03-12T17:35:53.650Z,97994.05
2019-03-12T17:38:22.950Z,97986.20
2019-03-12T17:40:52.007Z,97981.20
2019-03-12T17:43:21.518Z,97970.89
2019-03-12T17:45:50.751Z,97969.23
2019-03-12T17:48:20.036Z,97970.06
2019-03-12T17:50:49.555Z,97967.91
2019-03-12T17:53:18.811Z,97963.72
2019-03-12T17:55:50.487Z,97958.21
2019-03-12T17:58:19.731Z,97952.63
2019-03-12T18:00:48.964Z,97950.68
2019-03-12T18:03:18.230Z,97941.79
2019-03-12T18:05:47.858Z,97948.73
2019-03-12T18:08:17.883Z,97938.15
2019-03-12T18:10:47.771Z,97926.03
2019-03-12T18:13:17.076Z,97930.20
2019-03-12T18:15:47.991Z,97919.92
2019-03-12T18:18:17.451Z,97908.83
2019-03-12T18:20:46.706Z,97913.70
2019-03-12T18:23:16.285Z,97909.52
2019-03-12T18:25:45.539Z,97898.10
2019-03-12T18:28:14.905Z,97893.72
2019-03-12T18:30:45.447Z,97882.92
2019-03-12T18:33:14.833Z,97889.41
2019-03-12T18:35:44.340Z,97889.12
2019-03-12T18:38:13.594Z,97884.83
2019-03-12T18:40:44.992Z,97879.44
2019-03-12T18:43:14.966Z,97889.40
2019-03-12T18:45:44.350Z,97878.59
2019-03-12T18:48:13.660Z,97876.70
2019-03-12T18:50:42.890Z,97876.08
2019-03-12T18:53:12.605Z,97861.14
2019-03-12T18:55:44.717Z,97859.90
2019-03-12T18:58:14.250Z,97854.48
2019-03-12T19:00:44.581Z,97848.58
2019-03-12T19:03:13.853Z,97852.25
2019-03-12T19:05:46.269Z,97844.52
2019-03-12T19:08:16.155Z,97837.28
2019-03-12T19:10:46.526Z,97828.66
2019-03-12T19:13:17.053Z,97825.69
2019-03-12T19:15:47.970Z,97816.21
2019-03-12T19:18:17.209Z,97812.77
2019-03-12T19:20:47.920Z,97808.06
2019-03-12T19:23:18.001Z,97804.70
2019-03-12T19:25:47.518Z,97802.55
2019-03-12T19:28:17.901Z,97797.53
2019-03-12T19:30:47.441Z,97792.33
2019-03-12T19:33:17.676Z,97783.35
2019-03-12T19:35:47.733Z,97779.56
2019-03-12T19:38:19.025Z,97779.64
2019-03-12T19:40:48.594Z,97781.39
2019-03-12T19:43:17.866Z,97773.46
2019-03-12T19:45:47.245Z,97767.16
2019-03-12T19:48:16.513Z,97748.34
2019-03-12T19:50:46.099Z,97743.44
2019-03-12T19:53:15.338Z,97739.16
2019-03-12T19:55:45.614Z,97729.48
2019-03-12T19:58:15.553Z,97715.16
2019-03-12T20:00:47.178Z,97709.46
2019-03-12T20:03:17.254Z,97702.14
2019-03-12T20:05:47.627Z,97696.64
2019-03-12T20:08:18.303Z,97702.31
2019-03-12T20:11:23.542Z,97687.78
2019-03-12T20:14:42.731Z,97692.50
2019-03-12T20:17:45.745Z,97689.36
2019-03-12T20:20:57.718Z,97691.05
2019-03-12T20:24:22.130Z,97685.05
2019-03-12T20:27:21.238Z,97664.80
2019-03-12T20:30:30.593Z,97673.97
2019-03-12T20:33:21.959Z,97679.45
2019-03-12T20:36:31.262Z,97664.93
2019-03-12T20:39:36.263Z,97666.05
2019-03-12T20:42:47.419Z,97665.95
2019-03-12T20:45:52.294Z,97657.91
2019-03-12T20:49:10.785Z,97648.47
2019-03-12T20:52:07.916Z,97645.01
2019-03-12T20:55:15.247Z,97632.34
2019-03-12T20:58:33.601Z,97615.34
2019-03-12T21:01:54.337Z,97601.34
2019-03-12T21:05:05.967Z,97589.55
2019-03-12T21:08:11.945Z,97580.59
2019-03-12T21:11:24.206Z,97583.98
2019-03-12T21:14:42.550Z,97571.48
2019-03-12T21:18:07.271Z,97559.27
2019-03-12T21:21:09.777Z,97539.06
2019-03-12T21:24:05.103Z,97552.72
2019-03-12T21:27:15.838Z,97565.69
2019-03-12T21:29:47.425Z,97550.58
2019-03-12T21:32:17.638Z,97545.28
2019-03-12T21:34:47.353Z,97536.97
2019-03-12T21:37:16.927Z,97531.42
2019-03-12T21:39:55.011Z,97527.38
2019-03-12T21:42:17.558Z,97516.07
2019-03-12T21:44:46.796Z,97518.98
2019-03-12T21:47:23.567Z,97518.48
2019-03-12T21:49:54.004Z,97521.95
2019-03-12T21:52:24.431Z,97510.06
2019-03-12T21:54:53.659Z,97504.88
2019-03-12T21:57:23.039Z,97500.73
2019-03-12T21:59:52.270Z,97504.06
2019-03-12T22:02:23.913Z,97497.67
2019-03-12T22:04:53.156Z,97486.20
2019-03-12T22:07:22.407Z,97480.11
2019-03-12T22:09:51.639Z,97476.68
2019-03-12T22:12:21.209Z,97473.92
2019-03-12T22:14:50.444Z,97468.15
2019-03-12T22:17:19.707Z,97465.94
2019-03-12T22:19:48.988Z,97450.11
2019-03-12T22:22:29.326Z,97439.94
2019-03-12T22:24:58.582Z,97443.89
2019-03-12T22:27:27.903Z,97447.05
2019-03-12T22:29:57.828Z,97446.03
2019-03-12T22:32:27.106Z,97447.67
2019-03-12T22:34:56.350Z,97456.50
2019-03-12T22:37:25.615Z,97444.64
2019-03-12T22:39:54.837Z,97442.02
2019-03-12T22:42:24.095Z,97449.34
2019-03-12T22:44:53.599Z,97427.43
2019-03-12T22:47:25.202Z,97433.12
2019-03-12T22:49:54.473Z,97418.63
2019-03-12T22:52:23.725Z,97408.56
2019-03-12T22:54:53.252Z,97408.97
2019-03-12T22:57:23.449Z,97407.45
2019-03-12T22:59:52.678Z,97408.48
2019-03-12T23:02:21.914Z,97410.83
2019-03-12T23:04:51.167Z,97401.89
2019-03-12T23:07:20.410Z,97393.16
2019-03-12T23:09:52.736Z,97385.65
2019-03-12T23:12:22.270Z,97386.56
2019-03-12T23:14:51.520Z,97386.14
2019-03-12T23:17:20.754Z,97387.09
2019-03-12T23:19:50.013Z,97373.28
2019-03-12T23:22:19.240Z,97353.50
2019-03-12T23:24:48.497Z,97335.53
2019-03-12T23:27:17.735Z,97356.63
2019-03-12T23:29:47.001Z,97338.09
2019-03-12T23:32:19.668Z,97330.96
2019-03-12T23:34:48.914Z,97336.86
2019-03-12T23:37:18.155Z,97307.55
2019-03-12T23:39:47.416Z,97260.58
2019-03-12T23:42:17.750Z,97279.34
2019-03-12T23:44:46.996Z,97297.91
2019-03-12T23:47:16.231Z,97298.41
2019-03-12T23:49:45.783Z,97275.70
2019-03-12T23:52:15.014Z,97279.83
2019-03-12T23:54:44.850Z,97281.47
2019-03-12T23:57:14.120Z,97294.44
2019-03-12T23:59:45.043Z,97286.82
